createdAt,value
2022-11-26T00:04:20.832Z,9.49
2022-11-26T00:09:25.289Z,9.17
2022-11-26T00:14:28.446Z,8.90
2022-11-26T00:19:32.458Z,9.91
2022-11-26T00:24:36.507Z,13.14
2022-11-26T00:29:42.012Z,13.78
2022-11-26T00:34:45.909Z,12.14
2022-11-26T00:39:50.101Z,11.15
2022-11-26T00:44:53.611Z,10.48
2022-11-26T00:49:57.391Z,9.97
2022-11-26T00:55:16.261Z,9.56
2022-11-26T01:00:24.134Z,9.20
2022-11-26T01:05:33.852Z,10.16
2022-11-26T01:10:37.546Z,13.44
2022-11-26T01:15:41.677Z,13.81
2022-11-26T01:20:45.423Z,12.17
2022-11-26T01:25:49.877Z,11.23
2022-11-26T01:30:53.389Z,10.58
2022-11-26T01:35:57.042Z,10.07
2022-11-26T01:41:16.756Z,9.64
2022-11-26T01:46:22.842Z,9.28
2022-11-26T01:51:28.525Z,10.21
2022-11-26T01:56:41.367Z,13.40
2022-11-26T02:01:45.372Z,13.77
2022-11-26T02:06:53.392Z,12.15
2022-11-26T02:11:57.681Z,11.17
2022-11-26T02:17:10.770Z,10.48
2022-11-26T02:22:36.338Z,9.90
2022-11-26T02:27:52.642Z,9.41
2022-11-26T02:33:12.154Z,9.04
2022-11-26T02:38:33.567Z,10.11
2022-11-26T02:43:38.673Z,13.38
2022-11-26T02:48:47.440Z,13.79
2022-11-26T02:53:52.857Z,12.16
2022-11-26T02:58:57.436Z,11.22
2022-11-26T03:04:07.837Z,10.57
2022-11-26T03:09:11.312Z,10.06
2022-11-26T03:14:15.326Z,9.64
2022-11-26T03:19:18.829Z,9.29
2022-11-26T03:24:22.385Z,10.12
2022-11-26T03:29:26.059Z,13.29
2022-11-26T03:34:29.805Z,13.88
2022-11-26T03:39:33.112Z,12.24
2022-11-26T03:44:37.268Z,11.22
2022-11-26T03:49:41.168Z,10.54
2022-11-26T03:54:44.786Z,10.04
2022-11-26T04:05:08.282Z,9.34
2022-11-26T04:10:17.056Z,9.11
2022-11-26T04:15:23.322Z,10.18
2022-11-26T04:20:26.761Z,13.35
2022-11-26T04:25:30.065Z,13.24
2022-11-26T04:30:34.643Z,11.73
2022-11-26T04:35:38.290Z,10.89
2022-11-26T04:40:46.235Z,10.34
2022-11-26T04:45:49.846Z,9.88
2022-11-26T04:50:53.685Z,9.52
2022-11-26T04:55:57.918Z,9.25
2022-11-26T05:01:03.747Z,10.18
2022-11-26T05:06:11.932Z,13.26
2022-11-26T05:11:15.514Z,13.06
2022-11-26T05:16:19.091Z,11.57
2022-11-26T05:21:22.831Z,10.69
2022-11-26T05:26:26.646Z,10.11
2022-11-26T05:31:31.305Z,9.66
2022-11-26T05:36:35.001Z,9.28
2022-11-26T05:41:38.608Z,8.99
2022-11-26T05:46:43.737Z,9.85
2022-11-26T05:51:47.118Z,12.95
2022-11-26T05:56:54.274Z,13.07
2022-11-26T06:02:02.218Z,11.53
2022-11-26T06:07:05.617Z,10.66
2022-11-26T06:12:09.135Z,10.07
2022-11-26T06:17:12.855Z,9.55
2022-11-26T06:22:16.533Z,9.12
2022-11-26T06:27:43.336Z,8.78
2022-11-26T06:32:49.945Z,8.51
2022-11-26T06:37:53.413Z,9.46
2022-11-26T06:42:57.518Z,12.62
2022-11-26T06:48:01.369Z,13.23
2022-11-26T06:53:08.273Z,11.62
2022-11-26T06:58:11.775Z,10.61
2022-11-26T07:03:18.609Z,9.96
2022-11-26T07:08:25.709Z,9.47
2022-11-26T07:13:29.231Z,9.10
2022-11-26T07:18:32.831Z,8.84
2022-11-26T07:23:36.994Z,8.59
2022-11-26T07:28:45.452Z,9.71
2022-11-26T07:33:59.042Z,13.00
2022-11-26T07:39:03.626Z,13.20
2022-11-26T07:44:07.118Z,11.60
2022-11-26T07:49:10.709Z,10.66
2022-11-26T07:54:17.094Z,10.08
2022-11-26T07:59:24.462Z,9.66
2022-11-26T08:04:37.563Z,9.33
2022-11-26T08:09:41.154Z,9.04
2022-11-26T08:14:44.966Z,10.03
2022-11-26T08:19:50.834Z,13.25
2022-11-26T08:24:54.436Z,13.41
2022-11-26T08:30:07.982Z,11.91
2022-11-26T08:35:13.439Z,11.06
2022-11-26T08:40:17.431Z,10.52
2022-11-26T08:45:24.845Z,10.10
2022-11-26T08:50:28.407Z,9.76
2022-11-26T08:55:58.769Z,9.49
2022-11-26T09:00:56.036Z,10.55
2022-11-26T09:06:03.629Z,13.66
2022-11-26T09:11:06.855Z,13.26
2022-11-26T09:16:09.994Z,11.84
2022-11-26T09:21:13.733Z,11.10
2022-11-26T09:26:18.434Z,10.54
2022-11-26T09:31:22.136Z,10.13
2022-11-26T09:36:29.032Z,9.82
2022-11-26T09:41:44.729Z,9.62
2022-11-26T09:47:15.602Z,10.78
2022-11-26T09:52:22.737Z,14.03
2022-11-26T09:57:49.240Z,13.46
2022-11-26T10:02:54.063Z,12.10
2022-11-26T10:08:23.264Z,11.39
2022-11-26T10:13:38.223Z,10.85
2022-11-26T10:18:54.872Z,10.48
2022-11-26T10:24:04.855Z,10.13
2022-11-26T10:29:33.530Z,11.00
2022-11-26T10:34:48.422Z,14.21
2022-11-26T10:40:24.171Z,13.59
2022-11-26T10:45:41.200Z,12.26
2022-11-26T10:50:56.079Z,11.54
2022-11-26T10:56:01.572Z,11.01
2022-11-26T11:01:06.416Z,10.59
2022-11-26T11:06:12.500Z,10.25
2022-11-26T11:11:22.418Z,10.03
2022-11-26T11:16:27.947Z,11.06
2022-11-26T11:21:34.958Z,14.17
2022-11-26T11:26:44.805Z,14.25
2022-11-26T11:31:48.370Z,12.78
2022-11-26T11:37:07.879Z,11.97
2022-11-26T11:42:29.479Z,11.37
2022-11-26T11:47:45.072Z,10.89
2022-11-26T11:52:48.020Z,10.51
2022-11-26T11:58:09.517Z,11.34
2022-11-26T12:03:14.949Z,14.52
2022-11-26T12:08:33.157Z,14.28
2022-11-26T12:13:49.065Z,12.85
2022-11-26T12:18:56.401Z,12.03
2022-11-26T12:24:05.084Z,11.43
2022-11-26T12:29:26.935Z,10.98
2022-11-26T12:34:32.885Z,10.63
2022-11-26T12:39:35.888Z,11.66
2022-11-26T12:44:44.907Z,14.95
2022-11-26T12:50:15.847Z,14.64
2022-11-26T12:55:52.807Z,12.95
2022-11-26T13:00:57.062Z,12.03
2022-11-26T13:06:35.265Z,11.44
2022-11-26T13:11:56.022Z,10.98
2022-11-26T13:17:08.258Z,10.66
2022-11-26T13:22:23.039Z,11.80
2022-11-26T13:27:57.986Z,15.04
2022-11-26T13:33:47.221Z,14.60
2022-11-26T13:39:15.496Z,13.07
2022-11-26T13:44:43.528Z,12.29
2022-11-26T13:49:55.511Z,11.72
2022-11-26T13:55:19.648Z,11.28
2022-11-26T14:00:31.708Z,10.92
2022-11-26T14:05:49.787Z,11.99
2022-11-26T14:10:52.864Z,15.23
2022-11-26T14:15:57.586Z,15.12
2022-11-26T14:21:00.797Z,13.45
2022-11-26T14:26:04.179Z,12.48
2022-11-26T14:31:28.232Z,11.87
2022-11-26T14:36:31.749Z,11.35
2022-11-26T14:41:59.103Z,10.98
2022-11-26T14:47:27.621Z,12.24
2022-11-26T14:52:39.250Z,15.50
2022-11-26T14:57:46.645Z,14.95
2022-11-26T15:02:50.338Z,13.42
2022-11-26T15:07:58.139Z,12.56
2022-11-26T15:13:10.234Z,11.91
2022-11-26T15:18:16.078Z,11.38
2022-11-26T15:23:22.088Z,12.24
2022-11-26T15:28:26.485Z,15.19
2022-11-26T15:33:32.048Z,15.00
2022-11-26T15:38:37.562Z,13.41
2022-11-26T15:43:44.876Z,12.48
2022-11-26T15:48:55.911Z,11.85
2022-11-26T15:53:59.319Z,11.33
2022-11-26T15:59:07.443Z,10.91
2022-11-26T16:04:33.048Z,11.88
2022-11-26T16:09:36.066Z,15.09
2022-11-26T16:14:40.054Z,14.57
2022-11-26T16:19:53.256Z,13.14
2022-11-26T16:25:05.864Z,12.30
2022-11-26T16:30:15.893Z,11.73
2022-11-26T16:35:44.321Z,11.28
2022-11-26T16:40:42.548Z,10.88
2022-11-26T16:45:46.907Z,11.83
2022-11-26T16:50:50.404Z,15.14
2022-11-26T16:55:54.061Z,15.13
2022-11-26T17:00:57.819Z,13.55
2022-11-26T17:06:06.939Z,12.66
2022-11-26T17:11:13.975Z,12.04
2022-11-26T17:16:19.888Z,11.51
2022-11-26T17:21:23.941Z,11.08
2022-11-26T17:26:27.237Z,11.96
2022-11-26T17:31:30.945Z,15.10
2022-11-26T17:36:37.022Z,14.51
2022-11-26T17:41:40.718Z,13.12
2022-11-26T17:47:09.079Z,12.35
2022-11-26T17:52:07.771Z,11.73
2022-11-26T17:57:16.071Z,11.24
2022-11-26T18:02:19.493Z,10.84
2022-11-26T18:07:23.210Z,10.50
2022-11-26T18:12:28.104Z,11.57
2022-11-26T18:17:31.607Z,14.90
2022-11-26T18:22:35.097Z,14.72
2022-11-26T18:27:38.257Z,13.20
2022-11-26T18:32:41.641Z,12.33
2022-11-26T18:37:44.844Z,11.71
2022-11-26T18:42:53.006Z,11.22
2022-11-26T18:47:56.462Z,10.79
2022-11-26T18:52:59.796Z,10.44
2022-11-26T18:58:07.821Z,10.17
2022-11-26T19:03:13.351Z,9.94
2022-11-26T19:08:16.699Z,11.14
2022-11-26T19:13:20.077Z,14.46
2022-11-26T19:18:26.289Z,13.98
2022-11-26T19:23:29.876Z,12.58
2022-11-26T19:28:33.891Z,11.79
2022-11-26T19:33:38.003Z,11.25
2022-11-26T19:38:41.348Z,10.81
2022-11-26T19:43:44.685Z,10.41
2022-11-26T19:48:49.781Z,10.08
2022-11-26T19:53:55.064Z,9.81
2022-11-26T19:59:00.792Z,9.61
2022-11-26T20:04:08.670Z,9.44
2022-11-26T20:09:15.805Z,10.70
2022-11-26T20:14:22.719Z,14.10
2022-11-26T20:19:30.621Z,13.46
2022-11-26T20:24:36.421Z,12.12
2022-11-26T20:29:39.642Z,11.38
2022-11-26T20:34:45.115Z,10.82
2022-11-26T20:40:01.659Z,10.33
2022-11-26T20:45:45.898Z,9.92
2022-11-26T21:03:04.780Z,9.05
2022-11-26T21:08:11.333Z,8.90
2022-11-26T21:13:16.921Z,8.77
2022-11-26T21:18:20.713Z,8.66
2022-11-26T21:23:24.219Z,8.56
2022-11-26T21:28:27.587Z,9.87
2022-11-26T21:33:30.960Z,13.28
2022-11-26T21:38:34.560Z,12.64
2022-11-26T21:43:38.793Z,11.39
2022-11-26T21:48:42.233Z,10.70
2022-11-26T21:53:46.807Z,10.21
2022-11-26T21:58:54.143Z,10.07
2022-11-26T22:04:04.564Z,9.80
2022-11-26T22:09:08.259Z,9.47
2022-11-26T22:14:15.045Z,9.18
2022-11-26T22:19:18.295Z,8.94
2022-11-26T22:24:21.572Z,8.74
2022-11-26T22:29:25.081Z,8.58
2022-11-26T22:34:29.400Z,8.44
2022-11-26T22:39:32.836Z,8.32
2022-11-26T22:44:36.660Z,8.24
2022-11-26T22:49:40.734Z,8.18
2022-11-26T22:54:44.495Z,8.12
2022-11-26T22:59:48.011Z,8.06
2022-11-26T23:04:52.898Z,8.00
2022-11-26T23:09:58.942Z,7.95
2022-11-26T23:15:03.293Z,7.91
2022-11-26T23:20:08.015Z,7.88
2022-11-26T23:25:12.031Z,7.84
2022-11-26T23:30:16.173Z,7.81
2022-11-26T23:35:20.344Z,7.77
2022-11-26T23:40:24.013Z,7.75
2022-11-26T23:45:28.904Z,7.71
2022-11-26T23:50:35.108Z,7.68
2022-11-26T23:55:38.362Z,7.65
